createdAt,value
2022-10-18T00:02:45.113Z,71.52
2022-10-18T00:05:30.659Z,71.39
2022-10-18T00:08:17.388Z,71.30
2022-10-18T00:11:03.947Z,71.64
2022-10-18T00:13:49.387Z,70.92
2022-10-18T00:16:34.712Z,71.51
2022-10-18T00:19:20.155Z,71.56
2022-10-18T00:22:05.537Z,71.97
2022-10-18T00:24:51.164Z,71.45
2022-10-18T00:27:36.527Z,72.27
2022-10-18T00:30:21.987Z,71.76
2022-10-18T00:33:07.218Z,71.84
2022-10-18T00:35:52.990Z,72.37
2022-10-18T00:38:39.218Z,72.49
2022-10-18T00:41:27.112Z,72.43
2022-10-18T00:44:12.410Z,72.95
2022-10-18T00:47:03.368Z,72.74
2022-10-18T00:49:53.670Z,72.72
2022-10-18T00:52:47.126Z,72.64
2022-10-18T00:55:34.060Z,72.88
2022-10-18T00:58:20.148Z,72.95
2022-10-18T01:01:06.122Z,72.81
2022-10-18T01:03:52.874Z,72.50
2022-10-18T01:06:50.683Z,72.71
2022-10-18T01:09:41.900Z,72.24
2022-10-18T01:12:51.866Z,72.53
2022-10-18T01:16:00.279Z,72.06
2022-10-18T01:19:02.678Z,72.01
2022-10-18T01:21:59.853Z,72.63
2022-10-18T01:24:58.120Z,72.61
2022-10-18T01:27:55.451Z,72.71
2022-10-18T01:30:45.218Z,73.40
2022-10-18T01:33:38.274Z,73.42
2022-10-18T01:36:32.715Z,73.88
2022-10-18T01:39:29.490Z,73.70
2022-10-18T01:42:20.206Z,73.82
2022-10-18T01:45:08.043Z,73.67
2022-10-18T01:47:54.915Z,73.67
2022-10-18T01:50:40.566Z,73.53
2022-10-18T01:53:29.275Z,73.44
2022-10-18T01:56:39.630Z,73.43
2022-10-18T01:59:47.100Z,73.56
2022-10-18T02:02:41.283Z,73.49
2022-10-18T02:05:33.286Z,73.14
2022-10-18T02:08:27.971Z,72.90
2022-10-18T02:11:15.908Z,72.47
2022-10-18T02:14:08.288Z,72.19
2022-10-18T02:17:00.049Z,72.47
2022-10-18T02:19:51.979Z,72.28
2022-10-18T02:22:40.922Z,72.64
2022-10-18T02:25:30.242Z,72.95
2022-10-18T02:28:15.790Z,72.54
2022-10-18T02:31:10.842Z,73.31
2022-10-18T02:34:02.661Z,73.19
2022-10-18T02:36:58.061Z,73.82
2022-10-18T02:39:47.719Z,73.68
2022-10-18T02:42:38.672Z,74.01
2022-10-18T02:45:25.122Z,74.69
2022-10-18T02:48:10.555Z,74.95
2022-10-18T02:50:55.931Z,75.53
2022-10-18T02:53:41.556Z,75.10
2022-10-18T02:56:27.264Z,75.69
2022-10-18T02:59:13.004Z,75.58
2022-10-18T03:01:58.316Z,76.16
2022-10-18T03:04:43.847Z,76.29
2022-10-18T03:07:29.284Z,76.07
2022-10-18T03:10:15.184Z,76.05
2022-10-18T03:13:00.485Z,76.00
2022-10-18T03:15:47.046Z,76.50
2022-10-18T03:18:32.459Z,76.31
2022-10-18T03:21:17.836Z,76.12
2022-10-18T03:24:03.652Z,76.34
2022-10-18T03:26:49.336Z,75.94
2022-10-18T03:29:34.459Z,76.19
2022-10-18T03:32:20.044Z,76.59
2022-10-18T03:35:06.324Z,76.42
2022-10-18T03:37:51.587Z,76.25
2022-10-18T03:40:37.041Z,75.97
2022-10-18T03:43:22.656Z,76.33
2022-10-18T03:46:07.919Z,76.20
2022-10-18T03:48:53.233Z,76.84
2022-10-18T03:51:38.432Z,76.60
2022-10-18T03:54:23.913Z,76.07
2022-10-18T03:57:09.180Z,76.41
2022-10-18T03:59:54.719Z,76.01
2022-10-18T04:02:40.136Z,76.29
2022-10-18T04:05:28.024Z,76.33
2022-10-18T04:08:13.982Z,76.61
2022-10-18T04:10:59.617Z,77.10
2022-10-18T04:13:45.084Z,76.49
2022-10-18T04:16:30.543Z,76.44
2022-10-18T04:19:16.009Z,76.43
2022-10-18T04:22:01.593Z,75.97
2022-10-18T04:24:46.866Z,75.84
2022-10-18T04:27:32.558Z,75.92
2022-10-18T04:30:18.362Z,75.62
2022-10-18T04:33:04.126Z,75.97
2022-10-18T04:35:52.661Z,75.86
2022-10-18T04:38:38.031Z,76.49
2022-10-18T04:41:23.373Z,76.68
2022-10-18T04:44:08.972Z,76.62
2022-10-18T04:46:54.208Z,76.42
2022-10-18T04:49:39.742Z,76.58
2022-10-18T04:52:25.035Z,76.90
2022-10-18T04:55:10.640Z,77.08
2022-10-18T04:57:56.087Z,77.33
2022-10-18T05:00:42.253Z,77.04
2022-10-18T05:03:27.776Z,77.10
2022-10-18T05:06:14.414Z,76.84
2022-10-18T05:08:59.749Z,76.93
2022-10-18T05:11:45.210Z,77.16
2022-10-18T05:14:30.540Z,77.29
2022-10-18T05:17:16.163Z,77.75
2022-10-18T05:20:01.687Z,78.02
2022-10-18T05:22:47.376Z,78.15
2022-10-18T05:25:32.908Z,78.37
2022-10-18T05:28:38.843Z,78.24
2022-10-18T05:31:23.867Z,77.97
2022-10-18T05:34:09.749Z,78.21
2022-10-18T05:36:57.086Z,77.92
2022-10-18T05:39:42.988Z,78.32
2022-10-18T05:42:28.699Z,78.47
2022-10-18T05:45:14.770Z,78.15
2022-10-18T05:48:00.552Z,77.80
2022-10-18T05:50:46.070Z,77.95
2022-10-18T05:53:36.732Z,77.75
2022-10-18T05:56:23.901Z,77.85
2022-10-18T05:59:12.500Z,77.58
2022-10-18T06:01:58.052Z,77.72
2022-10-18T06:04:43.475Z,76.98
2022-10-18T06:07:28.928Z,76.44
2022-10-18T06:10:14.083Z,75.52
2022-10-18T06:12:59.537Z,74.91
2022-10-18T06:15:44.741Z,74.08
2022-10-18T06:18:30.211Z,72.79
2022-10-18T06:21:21.446Z,72.08
2022-10-18T06:24:12.976Z,71.83
2022-10-18T06:27:02.121Z,71.52
2022-10-18T06:29:48.181Z,71.01
2022-10-18T06:32:33.664Z,70.21
2022-10-18T06:35:20.577Z,69.98
2022-10-18T06:38:06.499Z,69.43
2022-10-18T06:40:52.090Z,69.38
2022-10-18T06:43:37.885Z,68.96
2022-10-18T06:46:23.989Z,68.67
2022-10-18T06:49:12.073Z,68.25
2022-10-18T06:51:59.555Z,68.07
2022-10-18T06:54:45.512Z,67.74
2022-10-18T06:57:31.701Z,67.76
2022-10-18T07:00:17.439Z,67.27
2022-10-18T07:03:02.859Z,67.12
2022-10-18T07:05:49.472Z,67.19
2022-10-18T07:08:35.421Z,67.16
2022-10-18T07:11:24.468Z,67.09
2022-10-18T07:14:14.000Z,66.60
2022-10-18T07:17:02.087Z,65.88
2022-10-18T07:19:47.296Z,65.87
2022-10-18T07:22:34.328Z,65.40
2022-10-18T07:25:20.418Z,65.62
2022-10-18T07:28:06.875Z,65.34
2022-10-18T07:30:53.631Z,65.40
2022-10-18T07:33:40.319Z,65.78
2022-10-18T07:36:26.091Z,65.83
2022-10-18T07:39:12.095Z,65.98
2022-10-18T07:41:59.035Z,66.56
2022-10-18T07:44:45.063Z,66.76
2022-10-18T07:47:32.826Z,66.56
2022-10-18T07:50:20.930Z,66.20
2022-10-18T07:53:06.607Z,66.30
2022-10-18T07:55:58.370Z,65.87
2022-10-18T07:58:46.125Z,65.90
2022-10-18T08:01:31.699Z,66.02
2022-10-18T08:04:17.089Z,66.23
2022-10-18T08:07:03.145Z,66.31
2022-10-18T08:09:48.891Z,66.24
2022-10-18T08:12:34.287Z,66.75
2022-10-18T08:15:21.866Z,65.81
2022-10-18T08:18:07.333Z,65.93
2022-10-18T08:20:52.817Z,66.57
2022-10-18T08:23:39.147Z,65.69
2022-10-18T08:26:24.838Z,66.64
2022-10-18T08:29:23.016Z,66.23
2022-10-18T08:32:10.220Z,65.74
2022-10-18T08:34:55.757Z,65.17
2022-10-18T08:37:41.269Z,65.43
2022-10-18T08:40:27.851Z,65.20
2022-10-18T08:43:26.115Z,64.83
2022-10-18T08:46:12.769Z,65.27
2022-10-18T08:48:59.327Z,65.45
2022-10-18T08:51:49.241Z,65.59
2022-10-18T08:54:44.302Z,65.20
2022-10-18T08:57:31.214Z,64.07
2022-10-18T09:00:29.262Z,63.10
2022-10-18T09:03:14.964Z,62.84
2022-10-18T09:06:31.454Z,62.62
2022-10-18T09:09:41.427Z,62.14
2022-10-18T09:13:01.255Z,60.81
2022-10-18T09:15:57.139Z,61.14
2022-10-18T09:19:03.708Z,61.18
2022-10-18T09:21:54.685Z,60.29
2022-10-18T09:24:41.779Z,59.92
2022-10-18T09:28:02.097Z,59.38
2022-10-18T09:30:59.466Z,59.36
2022-10-18T09:33:53.304Z,58.47
2022-10-18T09:36:39.838Z,57.31
2022-10-18T09:39:32.583Z,56.36
2022-10-18T09:42:28.270Z,53.87
2022-10-18T09:45:32.194Z,54.14
2022-10-18T09:48:28.034Z,53.45
2022-10-18T09:51:23.479Z,53.04
2022-10-18T09:54:34.043Z,52.96
2022-10-18T09:57:31.272Z,53.11
2022-10-18T10:00:24.330Z,53.11
2022-10-18T10:03:14.742Z,53.35
2022-10-18T10:06:23.903Z,53.03
2022-10-18T10:09:17.397Z,51.41
2022-10-18T10:12:03.230Z,51.77
2022-10-18T10:14:48.680Z,52.28
2022-10-18T10:17:34.967Z,51.46
2022-10-18T10:20:24.519Z,51.29
2022-10-18T10:23:22.974Z,49.85
2022-10-18T10:26:21.014Z,49.79
2022-10-18T10:29:44.462Z,51.26
2022-10-18T10:32:42.077Z,50.87
2022-10-18T10:35:56.365Z,49.60
2022-10-18T10:38:41.945Z,50.01
2022-10-18T10:41:27.772Z,50.13
2022-10-18T10:44:23.337Z,48.91
2022-10-18T10:47:09.261Z,50.10
2022-10-18T10:49:56.656Z,49.68
2022-10-18T10:52:47.353Z,48.51
2022-10-18T10:55:35.819Z,48.46
2022-10-18T10:58:22.698Z,47.88
2022-10-18T11:01:26.625Z,48.54
2022-10-18T11:04:28.613Z,49.11
2022-10-18T11:07:17.156Z,48.06
2022-10-18T11:10:10.800Z,47.54
2022-10-18T11:13:23.612Z,47.89
2022-10-18T11:16:25.997Z,48.31
2022-10-18T11:19:41.088Z,48.16
2022-10-18T11:22:31.700Z,48.81
2022-10-18T11:25:16.972Z,46.91
2022-10-18T11:28:35.897Z,46.98
2022-10-18T11:31:35.893Z,47.76
2022-10-18T11:34:29.048Z,46.70
2022-10-18T11:37:42.215Z,47.35
2022-10-18T11:40:30.888Z,45.78
2022-10-18T11:44:01.802Z,46.69
2022-10-18T11:47:17.019Z,47.42
2022-10-18T11:50:26.130Z,47.58
2022-10-18T11:53:31.223Z,46.83
2022-10-18T11:56:32.375Z,46.52
2022-10-18T11:59:37.962Z,46.40
2022-10-18T12:02:48.480Z,45.96
2022-10-18T12:05:38.067Z,46.27
2022-10-18T12:08:31.622Z,45.61
2022-10-18T12:11:36.524Z,46.16
2022-10-18T12:14:30.190Z,46.26
2022-10-18T12:17:46.181Z,46.55
2022-10-18T12:20:49.420Z,45.68
2022-10-18T12:23:45.650Z,46.40
2022-10-18T12:26:33.219Z,47.22
2022-10-18T12:29:30.591Z,48.20
2022-10-18T12:32:30.283Z,48.11
2022-10-18T12:35:17.931Z,48.33
2022-10-18T12:38:03.291Z,47.97
2022-10-18T12:40:52.544Z,47.40
2022-10-18T12:43:38.408Z,47.34
2022-10-18T12:46:23.837Z,47.28
2022-10-18T12:49:12.709Z,47.30
2022-10-18T12:52:01.717Z,47.42
2022-10-18T12:55:18.398Z,47.33
2022-10-18T12:58:15.477Z,47.23
2022-10-18T13:01:05.997Z,47.66
2022-10-18T13:03:54.962Z,48.13
2022-10-18T13:07:43.274Z,47.90
2022-10-18T13:10:34.170Z,48.02
2022-10-18T13:13:39.820Z,47.39
2022-10-18T13:16:29.766Z,47.59
2022-10-18T13:19:30.750Z,47.67
2022-10-18T13:22:22.320Z,47.55
2022-10-18T13:25:16.973Z,47.28
2022-10-18T13:28:21.439Z,47.37
2022-10-18T13:31:19.452Z,47.88
2022-10-18T13:34:35.325Z,47.49
2022-10-18T13:37:24.602Z,47.97
2022-10-18T13:40:36.751Z,47.50
2022-10-18T13:43:51.553Z,47.41
2022-10-18T13:46:37.773Z,47.96
2022-10-18T13:49:38.567Z,47.79
2022-10-18T13:52:43.015Z,47.65
2022-10-18T13:59:15.022Z,47.99
2022-10-18T14:02:11.224Z,48.01
2022-10-18T14:05:38.785Z,48.27
2022-10-18T14:08:40.005Z,47.93
2022-10-18T14:11:46.246Z,47.94
2022-10-18T14:14:40.746Z,48.38
2022-10-18T14:17:46.334Z,48.78
2022-10-18T14:21:01.445Z,48.75
2022-10-18T14:23:52.285Z,49.46
2022-10-18T14:29:25.178Z,50.86
2022-10-18T14:32:25.259Z,51.72
2022-10-18T14:35:32.559Z,51.92
2022-10-18T14:38:22.830Z,52.36
2022-10-18T14:41:28.923Z,52.57
2022-10-18T14:44:34.652Z,53.01
2022-10-18T14:47:26.037Z,53.08
2022-10-18T14:50:32.351Z,53.58
2022-10-18T14:53:34.653Z,54.15
2022-10-18T14:56:27.864Z,54.91
2022-10-18T14:59:22.002Z,54.99
2022-10-18T15:02:27.759Z,55.30
2022-10-18T15:05:16.697Z,55.29
2022-10-18T15:08:02.851Z,56.30
2022-10-18T15:10:48.988Z,56.70
2022-10-18T15:13:37.215Z,57.20
2022-10-18T15:16:33.115Z,56.91
2022-10-18T15:19:22.240Z,57.20
2022-10-18T15:25:19.876Z,57.83
2022-10-18T15:28:29.680Z,58.09
2022-10-18T15:31:24.837Z,58.29
2022-10-18T15:34:34.621Z,58.36
2022-10-18T15:37:33.062Z,58.28
2022-10-18T15:40:36.284Z,58.24
2022-10-18T15:43:28.814Z,58.64
2022-10-18T15:46:32.286Z,59.42
2022-10-18T15:49:40.719Z,59.64
2022-10-18T15:52:38.179Z,59.79
2022-10-18T15:55:29.280Z,59.96
2022-10-18T15:58:30.066Z,60.04
2022-10-18T16:01:20.694Z,60.26
2022-10-18T16:04:13.936Z,60.23
2022-10-18T16:07:00.358Z,60.49
2022-10-18T16:09:45.745Z,60.28
2022-10-18T16:12:32.756Z,60.99
2022-10-18T16:15:20.344Z,61.04
2022-10-18T16:18:06.013Z,61.99
2022-10-18T16:20:52.195Z,61.72
2022-10-18T16:23:38.619Z,61.37
2022-10-18T16:26:26.272Z,61.70
2022-10-18T16:29:16.718Z,61.87
2022-10-18T16:32:04.540Z,62.18
2022-10-18T16:34:49.597Z,62.26
2022-10-18T16:37:35.526Z,62.17
2022-10-18T16:40:26.627Z,62.70
2022-10-18T16:43:12.171Z,63.00
2022-10-18T16:45:57.802Z,63.91
2022-10-18T16:48:44.727Z,64.50
2022-10-18T16:51:32.753Z,65.08
2022-10-18T16:54:19.243Z,65.86
2022-10-18T16:57:12.953Z,65.64
2022-10-18T16:59:58.938Z,65.88
2022-10-18T17:02:47.683Z,65.96
2022-10-18T17:05:34.900Z,65.81
2022-10-18T17:08:26.873Z,65.78
2022-10-18T17:11:23.613Z,66.22
2022-10-18T17:14:10.338Z,66.59
2022-10-18T17:16:57.512Z,66.32
2022-10-18T17:19:42.966Z,67.03
2022-10-18T17:22:28.531Z,66.77
2022-10-18T17:25:14.023Z,66.71
2022-10-18T17:27:59.433Z,66.61
2022-10-18T17:30:45.522Z,66.37
2022-10-18T17:33:31.020Z,66.20
2022-10-18T17:36:17.308Z,66.83
2022-10-18T17:39:04.028Z,67.29
2022-10-18T17:41:50.665Z,67.21
2022-10-18T17:44:36.564Z,67.03
2022-10-18T17:47:22.209Z,67.11
2022-10-18T17:50:08.381Z,67.28
2022-10-18T17:52:54.200Z,67.18
2022-10-18T17:55:40.491Z,66.94
2022-10-18T17:58:25.612Z,66.76
2022-10-18T18:01:20.735Z,67.16
2022-10-18T18:04:06.187Z,66.32
2022-10-18T18:06:53.006Z,66.99
2022-10-18T18:09:38.863Z,67.27
2022-10-18T18:12:24.625Z,67.50
2022-10-18T18:15:11.082Z,68.39
2022-10-18T18:17:57.956Z,68.54
2022-10-18T18:20:53.277Z,68.35
2022-10-18T18:23:41.816Z,68.29
2022-10-18T18:26:27.732Z,68.05
2022-10-18T18:29:14.451Z,68.00
2022-10-18T18:32:03.729Z,68.36
2022-10-18T18:34:50.044Z,68.57
2022-10-18T18:37:36.555Z,67.87
2022-10-18T18:40:23.983Z,67.86
2022-10-18T18:43:22.695Z,67.95
2022-10-18T18:46:11.239Z,67.68
2022-10-18T18:48:58.364Z,67.76
2022-10-18T18:51:44.292Z,67.87
2022-10-18T18:54:31.777Z,67.75
2022-10-18T18:57:17.758Z,67.82
2022-10-18T19:00:04.666Z,67.80
2022-10-18T19:02:51.989Z,67.84
2022-10-18T19:05:39.206Z,67.66
2022-10-18T19:08:26.504Z,67.84
2022-10-18T19:11:19.749Z,67.92
2022-10-18T19:14:09.925Z,68.07
2022-10-18T19:16:58.996Z,68.20
2022-10-18T19:19:44.655Z,68.08
2022-10-18T19:22:30.116Z,68.03
2022-10-18T19:25:15.898Z,68.13
2022-10-18T19:28:01.269Z,67.90
2022-10-18T19:30:50.080Z,67.84
2022-10-18T19:33:48.268Z,67.89
2022-10-18T19:36:36.970Z,68.08
2022-10-18T19:39:31.007Z,68.21
2022-10-18T19:42:19.217Z,68.34
2022-10-18T19:45:08.918Z,68.54
2022-10-18T19:47:54.572Z,68.28
2022-10-18T19:50:39.875Z,67.98
2022-10-18T19:53:25.892Z,67.33
2022-10-18T19:56:18.260Z,67.68
2022-10-18T19:59:05.925Z,68.50
2022-10-18T20:01:52.590Z,68.36
2022-10-18T20:04:38.627Z,68.20
2022-10-18T20:07:24.386Z,68.03
2022-10-18T20:10:10.598Z,67.78
2022-10-18T20:12:56.224Z,67.07
2022-10-18T20:15:41.957Z,66.63
2022-10-18T20:18:27.745Z,66.17
2022-10-18T20:21:16.461Z,65.41
2022-10-18T20:24:05.804Z,65.00
2022-10-18T20:29:45.777Z,64.12
2022-10-18T20:32:32.950Z,64.00
2022-10-18T20:35:18.029Z,63.18
2022-10-18T20:38:03.580Z,62.40
2022-10-18T20:40:48.838Z,62.13
2022-10-18T20:43:34.627Z,61.82
2022-10-18T20:46:20.902Z,61.39
2022-10-18T20:49:08.414Z,60.98
2022-10-18T20:51:53.930Z,60.96
2022-10-18T20:54:39.453Z,60.53
2022-10-18T20:57:24.553Z,60.42
2022-10-18T21:00:11.726Z,59.91
2022-10-18T21:02:58.502Z,59.79
2022-10-18T21:05:44.063Z,59.92
2022-10-18T21:08:29.456Z,60.04
2022-10-18T21:11:14.845Z,59.88
2022-10-18T21:14:02.747Z,60.09
2022-10-18T21:16:49.859Z,59.84
2022-10-18T21:19:35.270Z,59.70
2022-10-18T21:22:20.888Z,59.76
2022-10-18T21:25:08.089Z,59.74
2022-10-18T21:27:53.495Z,60.13
2022-10-18T21:30:39.158Z,60.44
2022-10-18T21:33:24.936Z,60.89
2022-10-18T21:36:10.766Z,60.46
2022-10-18T21:38:56.410Z,61.07
2022-10-18T21:41:42.925Z,61.31
2022-10-18T21:44:28.297Z,61.38
2022-10-18T21:47:15.348Z,61.83
2022-10-18T21:50:00.576Z,62.12
2022-10-18T21:52:46.221Z,61.91
2022-10-18T21:55:31.480Z,62.13
2022-10-18T21:58:17.092Z,62.42
2022-10-18T22:01:09.399Z,62.72
2022-10-18T22:03:56.991Z,62.57
2022-10-18T22:06:42.315Z,63.10
2022-10-18T22:09:27.988Z,62.84
2022-10-18T22:12:13.281Z,63.08
2022-10-18T22:14:58.615Z,62.58
2022-10-18T22:17:44.121Z,62.92
2022-10-18T22:20:29.387Z,62.53
2022-10-18T22:23:14.901Z,62.90
2022-10-18T22:26:05.527Z,62.53
2022-10-18T22:28:59.950Z,62.45
2022-10-18T22:31:50.921Z,62.79
2022-10-18T22:34:36.822Z,62.96
2022-10-18T22:37:22.347Z,63.09
2022-10-18T22:40:10.863Z,63.27
2022-10-18T22:42:56.328Z,63.47
2022-10-18T22:45:41.940Z,63.78
2022-10-18T22:48:27.894Z,63.82
2022-10-18T22:51:13.818Z,64.18
2022-10-18T22:53:59.469Z,63.99
2022-10-18T22:56:44.773Z,63.56
2022-10-18T22:59:30.184Z,63.51
2022-10-18T23:02:15.740Z,63.19
2022-10-18T23:05:00.960Z,63.07
2022-10-18T23:07:50.171Z,63.03
2022-10-18T23:10:40.753Z,62.64
2022-10-18T23:13:27.868Z,63.13
2022-10-18T23:16:13.417Z,63.25
2022-10-18T23:18:59.743Z,63.76
2022-10-18T23:21:45.372Z,64.49
2022-10-18T23:24:30.867Z,65.46
2022-10-18T23:27:16.153Z,66.69
2022-10-18T23:30:01.356Z,66.75
2022-10-18T23:32:46.662Z,66.21
2022-10-18T23:35:32.034Z,66.07
2022-10-18T23:38:18.041Z,65.41
2022-10-18T23:41:05.515Z,65.03
2022-10-18T23:43:51.511Z,64.69
2022-10-18T23:46:37.226Z,64.65
2022-10-18T23:49:22.743Z,64.11
2022-10-18T23:52:08.446Z,64.11
2022-10-18T23:54:54.131Z,63.69
2022-10-18T23:57:39.306Z,63.66
